sensor_id;sensor_type;location;lat;lon;timestamp;pressure;altitude;pressure_sealevel;temperature
71640;BMP280;60912;48.968;10.124;2022-09-01T00:01:56;96964.16;;;16.93
71640;BMP280;60912;48.968;10.124;2022-09-01T00:04:24;96966.13;;;16.83
71640;BMP280;60912;48.968;10.124;2022-09-01T00:06:53;96963.09;;;16.88
71640;BMP280;60912;48.968;10.124;2022-09-01T00:09:23;96960.50;;;17.00
71640;BMP280;60912;48.968;10.124;2022-09-01T00:11:52;96960.50;;;17.00
71640;BMP280;60912;48.968;10.124;2022-09-01T00:14:24;96964.16;;;16.93
71640;BMP280;60912;48.968;10.124;2022-09-01T00:16:50;96965.59;;;16.94
71640;BMP280;60912;48.968;10.124;2022-09-01T00:19:15;96963.50;;;16.85
71640;BMP280;60912;48.968;10.124;2022-09-01T00:21:43;96967.50;;;16.91
71640;BMP280;60912;48.968;10.124;2022-09-01T00:24:10;96975.56;;;16.97
71640;BMP280;60912;48.968;10.124;2022-09-01T00:26:36;96969.19;;;17.04
71640;BMP280;60912;48.968;10.124;2022-09-01T00:29:03;96968.13;;;16.99
71640;BMP280;60912;48.968;10.124;2022-09-01T00:31:29;96968.84;;;17.00
71640;BMP280;60912;48.968;10.124;2022-09-01T00:33:54;96956.78;;;16.88
71640;BMP280;60912;48.968;10.124;2022-09-01T00:36:20;96961.06;;;16.89
71640;BMP280;60912;48.968;10.124;2022-09-01T00:38:47;96957.00;;;16.73
71640;BMP280;60912;48.968;10.124;2022-09-01T00:41:13;96961.59;;;16.78
71640;BMP280;60912;48.968;10.124;2022-09-01T00:46:16;96962.00;;;16.47
71640;BMP280;60912;48.968;10.124;2022-09-01T00:48:42;96954.22;;;16.46
71640;BMP280;60912;48.968;10.124;2022-09-01T00:51:09;96948.66;;;16.46
71640;BMP280;60912;48.968;10.124;2022-09-01T00:53:36;96949.13;;;16.25
71640;BMP280;60912;48.968;10.124;2022-09-01T00:56:02;96953.53;;;16.28
71640;BMP280;60912;48.968;10.124;2022-09-01T00:58:29;96947.47;;;16.22
71640;BMP280;60912;48.968;10.124;2022-09-01T01:00:55;96943.78;;;16.19
71640;BMP280;60912;48.968;10.124;2022-09-01T01:03:21;96946.34;;;16.25
71640;BMP280;60912;48.968;10.124;2022-09-01T01:05:55;96946.66;;;16.29
71640;BMP280;60912;48.968;10.124;2022-09-01T01:08:26;96949.78;;;16.16
71640;BMP280;60912;48.968;10.124;2022-09-01T01:11:01;96951.91;;;16.08
71640;BMP280;60912;48.968;10.124;2022-09-01T01:13:27;96950.53;;;15.99
71640;BMP280;60912;48.968;10.124;2022-09-01T01:15:56;96946.19;;;16.06
71640;BMP280;60912;48.968;10.124;2022-09-01T01:18:24;96939.56;;;16.01
71640;BMP280;60912;48.968;10.124;2022-09-01T01:20:58;96930.41;;;16.08
71640;BMP280;60912;48.968;10.124;2022-09-01T01:24:34;96931.22;;;16.01
71640;BMP280;60912;48.968;10.124;2022-09-01T01:26:35;96929.16;;;16.19
71640;BMP280;60912;48.968;10.124;2022-09-01T01:29:01;96929.09;;;16.27
71640;BMP280;60912;48.968;10.124;2022-09-01T01:31:27;96923.56;;;16.36
71640;BMP280;60912;48.968;10.124;2022-09-01T01:33:54;96918.94;;;16.48
71640;BMP280;60912;48.968;10.124;2022-09-01T01:38:50;96905.56;;;16.64
71640;BMP280;60912;48.968;10.124;2022-09-01T01:41:17;96912.06;;;16.76
71640;BMP280;60912;48.968;10.124;2022-09-01T01:43:46;96914.88;;;16.86
71640;BMP280;60912;48.968;10.124;2022-09-01T01:46:12;96909.63;;;16.90
71640;BMP280;60912;48.968;10.124;2022-09-01T01:48:40;96911.66;;;16.89
71640;BMP280;60912;48.968;10.124;2022-09-01T01:51:07;96909.84;;;16.75
71640;BMP280;60912;48.968;10.124;2022-09-01T01:53:32;96916.56;;;16.72
71640;BMP280;60912;48.968;10.124;2022-09-01T01:55:58;96920.97;;;16.75
71640;BMP280;60912;48.968;10.124;2022-09-01T01:58:25;96922.44;;;16.76
71640;BMP280;60912;48.968;10.124;2022-09-01T02:00:54;96933.16;;;16.79
71640;BMP280;60912;48.968;10.124;2022-09-01T02:03:22;96930.09;;;16.85
71640;BMP280;60912;48.968;10.124;2022-09-01T02:05:51;96936.41;;;16.85
71640;BMP280;60912;48.968;10.124;2022-09-01T02:08:18;96938.16;;;16.81
71640;BMP280;60912;48.968;10.124;2022-09-01T02:10:48;96944.50;;;16.64
71640;BMP280;60912;48.968;10.124;2022-09-01T02:13:16;96929.75;;;16.44
71640;BMP280;60912;48.968;10.124;2022-09-01T02:15:48;96933.22;;;16.35
71640;BMP280;60912;48.968;10.124;2022-09-01T02:18:17;96930.25;;;16.50
71640;BMP280;60912;48.968;10.124;2022-09-01T02:20:45;96930.88;;;16.58
71640;BMP280;60912;48.968;10.124;2022-09-01T02:23:12;96921.84;;;16.67
71640;BMP280;60912;48.968;10.124;2022-09-01T02:25:42;96918.19;;;16.75
71640;BMP280;60912;48.968;10.124;2022-09-01T02:28:11;96918.53;;;16.79
71640;BMP280;60912;48.968;10.124;2022-09-01T02:30:41;96919.31;;;16.89
71640;BMP280;60912;48.968;10.124;2022-09-01T02:33:06;96914.31;;;16.97
71640;BMP280;60912;48.968;10.124;2022-09-01T02:35:34;96915.38;;;17.01
71640;BMP280;60912;48.968;10.124;2022-09-01T02:38:05;96913.72;;;16.89
71640;BMP280;60912;48.968;10.124;2022-09-01T02:40:32;96915.19;;;16.90
71640;BMP280;60912;48.968;10.124;2022-09-01T02:42:58;96910.78;;;16.87
71640;BMP280;60912;48.968;10.124;2022-09-01T02:45:26;96902.59;;;16.89
71640;BMP280;60912;48.968;10.124;2022-09-01T02:47:53;96901.13;;;16.97
71640;BMP280;60912;48.968;10.124;2022-09-01T02:50:22;96906.13;;;16.99
71640;BMP280;60912;48.968;10.124;2022-09-01T02:52:49;96909.97;;;17.03
71640;BMP280;60912;48.968;10.124;2022-09-01T02:55:15;96903.50;;;17.10
71640;BMP280;60912;48.968;10.124;2022-09-01T02:57:47;96898.59;;;17.19
71640;BMP280;60912;48.968;10.124;2022-09-01T03:00:14;96900.47;;;17.26
71640;BMP280;60912;48.968;10.124;2022-09-01T03:02:59;96897.97;;;17.20
71640;BMP280;60912;48.968;10.124;2022-09-01T03:05:27;96898.44;;;17.26
71640;BMP280;60912;48.968;10.124;2022-09-01T03:07:58;96909.38;;;17.05
71640;BMP280;60912;48.968;10.124;2022-09-01T03:10:27;96899.28;;;17.09
71640;BMP280;60912;48.968;10.124;2022-09-01T03:12:56;96901.38;;;17.19
71640;BMP280;60912;48.968;10.124;2022-09-01T03:15:21;96901.22;;;17.26
71640;BMP280;60912;48.968;10.124;2022-09-01T03:17:47;96897.28;;;17.29
71640;BMP280;60912;48.968;10.124;2022-09-01T03:20:13;96898.59;;;17.38
71640;BMP280;60912;48.968;10.124;2022-09-01T03:22:39;96901.66;;;17.32
71640;BMP280;60912;48.968;10.124;2022-09-01T03:25:04;96901.38;;;17.28
71640;BMP280;60912;48.968;10.124;2022-09-01T03:27:30;96894.34;;;17.37
71640;BMP280;60912;48.968;10.124;2022-09-01T03:29:55;96908.09;;;17.35
71640;BMP280;60912;48.968;10.124;2022-09-01T03:32:21;96901.47;;;17.21
71640;BMP280;60912;48.968;10.124;2022-09-01T03:34:46;96900.06;;;17.29
71640;BMP280;60912;48.968;10.124;2022-09-01T03:37:11;96902.94;;;17.12
71640;BMP280;60912;48.968;10.124;2022-09-01T03:39:37;96905.91;;;17.14
71640;BMP280;60912;48.968;10.124;2022-09-01T03:42:03;96907.66;;;17.19
71640;BMP280;60912;48.968;10.124;2022-09-01T03:44:29;96913.31;;;17.02
71640;BMP280;60912;48.968;10.124;2022-09-01T03:46:54;96905.69;;;16.93
71640;BMP280;60912;48.968;10.124;2022-09-01T03:49:20;96908.75;;;16.97
71640;BMP280;60912;48.968;10.124;2022-09-01T03:51:51;96906.94;;;16.82
71640;BMP280;60912;48.968;10.124;2022-09-01T03:54:18;96904.50;;;16.96
71640;BMP280;60912;48.968;10.124;2022-09-01T03:56:49;96907.75;;;17.02
71640;BMP280;60912;48.968;10.124;2022-09-01T03:59:14;96899.53;;;16.94
71640;BMP280;60912;48.968;10.124;2022-09-01T04:01:44;96909.47;;;16.88
71640;BMP280;60912;48.968;10.124;2022-09-01T04:04:10;96914.28;;;16.78
71640;BMP280;60912;48.968;10.124;2022-09-01T04:06:38;96905.16;;;16.67
71640;BMP280;60912;48.968;10.124;2022-09-01T04:09:04;96907.44;;;16.61
71640;BMP280;60912;48.968;10.124;2022-09-01T04:11:31;96903.84;;;16.42
71640;BMP280;60912;48.968;10.124;2022-09-01T04:13:58;96906.09;;;16.53
71640;BMP280;60912;48.968;10.124;2022-09-01T04:16:29;96911.00;;;16.72
71640;BMP280;60912;48.968;10.124;2022-09-01T04:19:16;96903.72;;;16.86
71640;BMP280;60912;48.968;10.124;2022-09-01T04:21:48;96902.44;;;16.96
71640;BMP280;60912;48.968;10.124;2022-09-01T04:24:19;96899.28;;;17.09
71640;BMP280;60912;48.968;10.124;2022-09-01T04:26:48;96902.75;;;17.00
71640;BMP280;60912;48.968;10.124;2022-09-01T04:29:18;96902.06;;;17.09
71640;BMP280;60912;48.968;10.124;2022-09-01T04:31:48;96905.00;;;17.21
71640;BMP280;60912;48.968;10.124;2022-09-01T04:34:18;96896.94;;;17.25
71640;BMP280;60912;48.968;10.124;2022-09-01T04:36:44;96904.44;;;17.32
71640;BMP280;60912;48.968;10.124;2022-09-01T04:39:10;96900.06;;;17.29
71640;BMP280;60912;48.968;10.124;2022-09-01T04:41:38;96905.91;;;17.24
71640;BMP280;60912;48.968;10.124;2022-09-01T04:44:05;96902.69;;;17.17
71640;BMP280;60912;48.968;10.124;2022-09-01T04:46:37;96911.59;;;17.16
71640;BMP280;60912;48.968;10.124;2022-09-01T04:49:07;96906.19;;;17.18
71640;BMP280;60912;48.968;10.124;2022-09-01T04:51:40;96913.22;;;17.19
71640;BMP280;60912;48.968;10.124;2022-09-01T04:54:06;96909.00;;;17.18
71640;BMP280;60912;48.968;10.124;2022-09-01T04:56:35;96910.88;;;17.15
71640;BMP280;60912;48.968;10.124;2022-09-01T04:59:01;96910.44;;;17.19
71640;BMP280;60912;48.968;10.124;2022-09-01T05:01:32;96910.56;;;17.21
71640;BMP280;60912;48.968;10.124;2022-09-01T05:04:09;96916.03;;;17.29
71640;BMP280;60912;48.968;10.124;2022-09-01T05:06:41;96909.28;;;17.32
71640;BMP280;60912;48.968;10.124;2022-09-01T05:09:09;96908.56;;;17.31
71640;BMP280;60912;48.968;10.124;2022-09-01T05:11:37;96900.75;;;17.20
71640;BMP280;60912;48.968;10.124;2022-09-01T05:14:03;96894.91;;;17.26
71640;BMP280;60912;48.968;10.124;2022-09-01T05:16:31;96901.81;;;17.34
71640;BMP280;60912;48.968;10.124;2022-09-01T05:18:57;96907.69;;;17.38
71640;BMP280;60912;48.968;10.124;2022-09-01T05:21:26;96909.00;;;17.18
71640;BMP280;60912;48.968;10.124;2022-09-01T05:23:56;96905.00;;;17.11
71640;BMP280;60912;48.968;10.124;2022-09-01T05:26:27;96906.28;;;17.10
71640;BMP280;60912;48.968;10.124;2022-09-01T05:28:57;96915.28;;;17.19
71640;BMP280;60912;48.968;10.124;2022-09-01T05:31:25;96909.56;;;17.26
71640;BMP280;60912;48.968;10.124;2022-09-01T05:33:52;96907.09;;;17.30
71640;BMP280;60912;48.968;10.124;2022-09-01T05:36:21;96908.44;;;17.39
71640;BMP280;60912;48.968;10.124;2022-09-01T05:38:47;96911.31;;;17.22
71640;BMP280;60912;48.968;10.124;2022-09-01T05:41:15;96915.13;;;17.26
71640;BMP280;60912;48.968;10.124;2022-09-01T05:43:42;96912.34;;;17.26
71640;BMP280;60912;48.968;10.124;2022-09-01T05:46:16;96915.00;;;17.34
71640;BMP280;60912;48.968;10.124;2022-09-01T05:48:45;96917.84;;;17.43
71640;BMP280;60912;48.968;10.124;2022-09-01T05:51:14;96925.28;;;17.41
71640;BMP280;60912;48.968;10.124;2022-09-01T05:53:42;96918.91;;;17.11
71640;BMP280;60912;48.968;10.124;2022-09-01T05:56:09;96914.81;;;17.03
71640;BMP280;60912;48.968;10.124;2022-09-01T05:58:37;96918.03;;;17.09
71640;BMP280;60912;48.968;10.124;2022-09-01T06:01:04;96912.03;;;17.22
71640;BMP280;60912;48.968;10.124;2022-09-01T06:03:30;96911.03;;;17.27
71640;BMP280;60912;48.968;10.124;2022-09-01T06:06:01;96915.78;;;17.44
71640;BMP280;60912;48.968;10.124;2022-09-01T06:08:27;96918.84;;;17.57
71640;BMP280;60912;48.968;10.124;2022-09-01T06:10:53;96923.72;;;17.66
71640;BMP280;60912;48.968;10.124;2022-09-01T06:13:19;96920.63;;;17.62
71640;BMP280;60912;48.968;10.124;2022-09-01T06:15:47;96918.25;;;17.49
71640;BMP280;60912;48.968;10.124;2022-09-01T06:18:14;96927.06;;;17.55
71640;BMP280;60912;48.968;10.124;2022-09-01T06:20:44;96938.66;;;17.61
71640;BMP280;60912;48.968;10.124;2022-09-01T06:23:11;96924.72;;;17.61
71640;BMP280;60912;48.968;10.124;2022-09-01T06:25:43;96927.81;;;17.75
71640;BMP280;60912;48.968;10.124;2022-09-01T06:28:14;96926.03;;;17.70
71640;BMP280;60912;48.968;10.124;2022-09-01T06:30:42;96922.22;;;17.56
71640;BMP280;60912;48.968;10.124;2022-09-01T06:33:09;96924.72;;;17.52
71640;BMP280;60912;48.968;10.124;2022-09-01T06:35:38;96915.50;;;17.68
71640;BMP280;60912;48.968;10.124;2022-09-01T06:38:05;96916.22;;;17.79
71640;BMP280;60912;48.968;10.124;2022-09-01T06:40:32;96915.34;;;17.76
71640;BMP280;60912;48.968;10.124;2022-09-01T06:42:58;96921.94;;;17.90
71640;BMP280;60912;48.968;10.124;2022-09-01T06:45:26;96920.56;;;18.20
71640;BMP280;60912;48.968;10.124;2022-09-01T06:47:52;96918.38;;;18.68
71640;BMP280;60912;48.968;10.124;2022-09-01T06:50:20;96912.06;;;18.99
71640;BMP280;60912;48.968;10.124;2022-09-01T06:52:48;96911.09;;;19.15
71640;BMP280;60912;48.968;10.124;2022-09-01T06:55:28;96919.50;;;18.85
71640;BMP280;60912;48.968;10.124;2022-09-01T06:57:56;96923.50;;;18.72
71640;BMP280;60912;48.968;10.124;2022-09-01T07:00:23;96925.97;;;18.78
71640;BMP280;60912;48.968;10.124;2022-09-01T07:02:53;96925.97;;;18.37
71640;BMP280;60912;48.968;10.124;2022-09-01T07:05:21;96929.00;;;18.60
71640;BMP280;60912;48.968;10.124;2022-09-01T07:07:53;96924.63;;;18.88
71640;BMP280;60912;48.968;10.124;2022-09-01T07:10:24;96927.44;;;19.09
71640;BMP280;60912;48.968;10.124;2022-09-01T07:12:55;96931.75;;;18.70
71640;BMP280;60912;48.968;10.124;2022-09-01T07:15:22;96935.50;;;18.84
71640;BMP280;60912;48.968;10.124;2022-09-01T07:17:50;96931.28;;;18.74
71640;BMP280;60912;48.968;10.124;2022-09-01T07:20:17;96934.84;;;18.64
71640;BMP280;60912;48.968;10.124;2022-09-01T07:22:42;96939.94;;;18.37
71640;BMP280;60912;48.968;10.124;2022-09-01T07:25:08;96942.69;;;18.47
71640;BMP280;60912;48.968;10.124;2022-09-01T07:27:37;96940.25;;;18.32
71640;BMP280;60912;48.968;10.124;2022-09-01T07:30:03;96944.16;;;18.48
71640;BMP280;60912;48.968;10.124;2022-09-01T07:32:34;96937.53;;;18.93
71640;BMP280;60912;48.968;10.124;2022-09-01T07:35:03;96933.13;;;19.21
71640;BMP280;60912;48.968;10.124;2022-09-01T07:37:30;96940.56;;;19.49
71640;BMP280;60912;48.968;10.124;2022-09-01T07:39:56;96947.25;;;19.65
71640;BMP280;60912;48.968;10.124;2022-09-01T07:42:22;96947.41;;;19.79
71640;BMP280;60912;48.968;10.124;2022-09-01T07:44:48;96944.19;;;19.83
71640;BMP280;60912;48.968;10.124;2022-09-01T07:47:14;96950.91;;;19.47
71640;BMP280;60912;48.968;10.124;2022-09-01T07:49:40;96943.84;;;19.46
71640;BMP280;60912;48.968;10.124;2022-09-01T07:52:05;96951.38;;;19.64
71640;BMP280;60912;48.968;10.124;2022-09-01T07:54:31;96947.31;;;19.56
71640;BMP280;60912;48.968;10.124;2022-09-01T07:56:58;96952.97;;;19.67
71640;BMP280;60912;48.968;10.124;2022-09-01T07:59:23;96952.56;;;19.61
71640;BMP280;60912;48.968;10.124;2022-09-01T08:01:50;96958.31;;;19.75
71640;BMP280;60912;48.968;10.124;2022-09-01T08:04:16;96952.59;;;19.94
71640;BMP280;60912;48.968;10.124;2022-09-01T08:06:46;96956.69;;;20.26
71640;BMP280;60912;48.968;10.124;2022-09-01T08:09:12;96959.78;;;20.30
71640;BMP280;60912;48.968;10.124;2022-09-01T08:11:37;96963.44;;;20.44
71640;BMP280;60912;48.968;10.124;2022-09-01T08:14:03;96964.22;;;20.12
71640;BMP280;60912;48.968;10.124;2022-09-01T08:16:29;96961.22;;;19.98
71640;BMP280;60912;48.968;10.124;2022-09-01T08:18:55;96960.75;;;20.02
71640;BMP280;60912;48.968;10.124;2022-09-01T08:21:22;96964.47;;;20.16
71640;BMP280;60912;48.968;10.124;2022-09-01T08:23:49;96957.13;;;20.11
71640;BMP280;60912;48.968;10.124;2022-09-01T08:26:17;96969.78;;;20.00
71640;BMP280;60912;48.968;10.124;2022-09-01T08:28:43;96969.97;;;20.25
71640;BMP280;60912;48.968;10.124;2022-09-01T08:31:11;96976.84;;;20.46
71640;BMP280;60912;48.968;10.124;2022-09-01T08:33:40;96970.16;;;20.51
71640;BMP280;60912;48.968;10.124;2022-09-01T08:36:11;96976.38;;;20.72
71640;BMP280;60912;48.968;10.124;2022-09-01T08:38:38;96971.16;;;21.02
71640;BMP280;60912;48.968;10.124;2022-09-01T08:41:06;96974.94;;;20.95
71640;BMP280;60912;48.968;10.124;2022-09-01T08:44:02;96974.66;;;21.37
71640;BMP280;60912;48.968;10.124;2022-09-01T08:46:37;96969.91;;;22.02
71640;BMP280;60912;48.968;10.124;2022-09-01T08:49:20;96965.88;;;22.05
71640;BMP280;60912;48.968;10.124;2022-09-01T08:52:06;96974.38;;;21.56
71640;BMP280;60912;48.968;10.124;2022-09-01T08:57:13;96974.28;;;21.43
71640;BMP280;60912;48.968;10.124;2022-09-01T08:59:40;96968.91;;;21.35
71640;BMP280;60912;48.968;10.124;2022-09-01T09:05:00;96979.91;;;20.84
71640;BMP280;60912;48.968;10.124;2022-09-01T09:10:23;96980.66;;;21.20
71640;BMP280;60912;48.968;10.124;2022-09-01T09:16:01;96990.41;;;21.19
71640;BMP280;60912;48.968;10.124;2022-09-01T09:18:54;96984.44;;;20.90
71640;BMP280;60912;48.968;10.124;2022-09-01T09:21:26;96987.38;;;20.80
71640;BMP280;60912;48.968;10.124;2022-09-01T09:23:58;96991.75;;;20.71
71640;BMP280;60912;48.968;10.124;2022-09-01T09:26:24;96983.94;;;20.70
71640;BMP280;60912;48.968;10.124;2022-09-01T09:28:51;96984.03;;;20.60
71640;BMP280;60912;48.968;10.124;2022-09-01T09:31:33;96980.56;;;20.83
71640;BMP280;60912;48.968;10.124;2022-09-01T09:33:59;96987.97;;;21.02
71640;BMP280;60912;48.968;10.124;2022-09-01T09:36:31;96988.31;;;20.73
71640;BMP280;60912;48.968;10.124;2022-09-01T09:39:16;96989.69;;;20.84
71640;BMP280;60912;48.968;10.124;2022-09-01T09:41:43;96987.63;;;20.96
71640;BMP280;60912;48.968;10.124;2022-09-01T09:44:28;96987.94;;;21.13
71640;BMP280;60912;48.968;10.124;2022-09-01T09:46:54;96986.00;;;21.27
71640;BMP280;60912;48.968;10.124;2022-09-01T09:49:28;96985.75;;;20.89
71640;BMP280;60912;48.968;10.124;2022-09-01T09:54:29;96992.84;;;20.66
71640;BMP280;60912;48.968;10.124;2022-09-01T09:59:36;96988.22;;;20.59
71640;BMP280;60912;48.968;10.124;2022-09-01T10:04:46;96973.59;;;21.07
71640;BMP280;60912;48.968;10.124;2022-09-01T10:07:27;96992.59;;;21.32
71640;BMP280;60912;48.968;10.124;2022-09-01T10:09:55;96976.72;;;21.36
71640;BMP280;60912;48.968;10.124;2022-09-01T10:12:23;96977.41;;;21.60
71640;BMP280;60912;48.968;10.124;2022-09-01T10:14:53;96975.72;;;21.55
71640;BMP280;60912;48.968;10.124;2022-09-01T10:17:29;96974.88;;;21.53
71640;BMP280;60912;48.968;10.124;2022-09-01T10:19:58;96973.81;;;21.34
71640;BMP280;60912;48.968;10.124;2022-09-01T10:22:29;96974.00;;;21.50
71640;BMP280;60912;48.968;10.124;2022-09-01T10:24:55;96985.50;;;21.79
71640;BMP280;60912;48.968;10.124;2022-09-01T10:27:23;96974.66;;;21.74
71640;BMP280;60912;48.968;10.124;2022-09-01T10:29:55;96985.13;;;21.85
71640;BMP280;60912;48.968;10.124;2022-09-01T10:32:26;96980.72;;;21.45
71640;BMP280;60912;48.968;10.124;2022-09-01T10:34:54;96978.25;;;21.63
71640;BMP280;60912;48.968;10.124;2022-09-01T10:37:21;96967.44;;;21.46
71640;BMP280;60912;48.968;10.124;2022-09-01T10:42:54;96981.47;;;21.82
71640;BMP280;60912;48.968;10.124;2022-09-01T10:45:35;96976.84;;;21.27
71640;BMP280;60912;48.968;10.124;2022-09-01T10:50:50;96977.53;;;22.13
71640;BMP280;60912;48.968;10.124;2022-09-01T10:56:11;96967.59;;;22.23
71640;BMP280;60912;48.968;10.124;2022-09-01T11:01:13;96965.22;;;22.70
71640;BMP280;60912;48.968;10.124;2022-09-01T11:03:52;96960.13;;;23.08
71640;BMP280;60912;48.968;10.124;2022-09-01T11:09:02;96963.56;;;22.92
71640;BMP280;60912;48.968;10.124;2022-09-01T11:11:40;96968.97;;;23.02
71640;BMP280;60912;48.968;10.124;2022-09-01T11:14:25;96967.63;;;23.17
71640;BMP280;60912;48.968;10.124;2022-09-01T11:17:10;96967.75;;;22.39
71640;BMP280;60912;48.968;10.124;2022-09-01T11:19:40;96957.97;;;22.40
71640;BMP280;60912;48.968;10.124;2022-09-01T11:27:54;96972.53;;;22.23
71640;BMP280;60912;48.968;10.124;2022-09-01T11:29:59;96966.56;;;21.91
71640;BMP280;60912;48.968;10.124;2022-09-01T11:32:31;96966.78;;;21.96
71640;BMP280;60912;48.968;10.124;2022-09-01T11:35:01;96967.72;;;22.00
71640;BMP280;60912;48.968;10.124;2022-09-01T11:37:27;96964.09;;;21.98
71640;BMP280;60912;48.968;10.124;2022-09-01T11:40:03;96961.66;;;22.17
71640;BMP280;60912;48.968;10.124;2022-09-01T11:42:39;96974.16;;;22.28
71640;BMP280;60912;48.968;10.124;2022-09-01T11:47:41;96964.09;;;22.23
71640;BMP280;60912;48.968;10.124;2022-09-01T11:52:35;96960.13;;;22.80
71640;BMP280;60912;48.968;10.124;2022-09-01T11:55:04;96953.75;;;22.66
71640;BMP280;60912;48.968;10.124;2022-09-01T11:57:31;96947.00;;;22.71
71640;BMP280;60912;48.968;10.124;2022-09-01T11:59:59;96952.53;;;22.69
71640;BMP280;60912;48.968;10.124;2022-09-01T12:02:28;96956.09;;;22.83
71640;BMP280;60912;48.968;10.124;2022-09-01T12:04:56;96948.78;;;23.05
71640;BMP280;60912;48.968;10.124;2022-09-01T12:07:45;96956.50;;;22.91
71640;BMP280;60912;48.968;10.124;2022-09-01T12:10:32;96946.19;;;23.10
71640;BMP280;60912;48.968;10.124;2022-09-01T12:13:09;96932.69;;;23.49
71640;BMP280;60912;48.968;10.124;2022-09-01T12:15:38;96932.59;;;23.62
71640;BMP280;60912;48.968;10.124;2022-09-01T12:18:13;96925.78;;;23.81
71640;BMP280;60912;48.968;10.124;2022-09-01T12:20:43;96917.44;;;23.83
71640;BMP280;60912;48.968;10.124;2022-09-01T12:25:41;96926.13;;;23.74
71640;BMP280;60912;48.968;10.124;2022-09-01T12:28:07;96921.56;;;23.67
71640;BMP280;60912;48.968;10.124;2022-09-01T12:30:33;96934.22;;;22.68
71640;BMP280;60912;48.968;10.124;2022-09-01T12:33:02;96923.16;;;22.59
71640;BMP280;60912;48.968;10.124;2022-09-01T12:35:27;96931.78;;;22.63
71640;BMP280;60912;48.968;10.124;2022-09-01T12:38:30;96930.97;;;22.60
71640;BMP280;60912;48.968;10.124;2022-09-01T12:40:56;96931.78;;;23.03
71640;BMP280;60912;48.968;10.124;2022-09-01T12:43:38;96924.94;;;23.20
71640;BMP280;60912;48.968;10.124;2022-09-01T12:46:05;96931.38;;;23.52
71640;BMP280;60912;48.968;10.124;2022-09-01T12:48:32;96939.94;;;23.54
71640;BMP280;60912;48.968;10.124;2022-09-01T12:51:22;96931.78;;;23.31
71640;BMP280;60912;48.968;10.124;2022-09-01T12:53:59;96931.84;;;23.46
71640;BMP280;60912;48.968;10.124;2022-09-01T12:56:33;96933.44;;;23.65
71640;BMP280;60912;48.968;10.124;2022-09-01T13:01:37;96934.84;;;23.37
71640;BMP280;60912;48.968;10.124;2022-09-01T13:04:14;96931.00;;;23.44
71640;BMP280;60912;48.968;10.124;2022-09-01T13:06:40;96939.72;;;23.21
71640;BMP280;60912;48.968;10.124;2022-09-01T13:09:05;96940.97;;;22.90
71640;BMP280;60912;48.968;10.124;2022-09-01T13:11:31;96930.56;;;23.07
71640;BMP280;60912;48.968;10.124;2022-09-01T13:13:57;96923.38;;;23.17
71640;BMP280;60912;48.968;10.124;2022-09-01T13:16:23;96923.03;;;23.25
71640;BMP280;60912;48.968;10.124;2022-09-01T13:18:48;96916.78;;;23.55
71640;BMP280;60912;48.968;10.124;2022-09-01T13:21:14;96910.22;;;23.51
71640;BMP280;60912;48.968;10.124;2022-09-01T13:23:40;96916.84;;;23.71
71640;BMP280;60912;48.968;10.124;2022-09-01T13:26:05;96911.09;;;23.83
71640;BMP280;60912;48.968;10.124;2022-09-01T13:28:31;96908.53;;;23.89
71640;BMP280;60912;48.968;10.124;2022-09-01T13:31:00;96908.34;;;23.85
71640;BMP280;60912;48.968;10.124;2022-09-01T13:33:30;96903.13;;;24.24
71640;BMP280;60912;48.968;10.124;2022-09-01T13:35:56;96912.28;;;24.40
71640;BMP280;60912;48.968;10.124;2022-09-01T13:38:22;96900.56;;;24.30
71640;BMP280;60912;48.968;10.124;2022-09-01T13:40:48;96898.28;;;24.27
71640;BMP280;60912;48.968;10.124;2022-09-01T13:43:16;96901.66;;;24.23
71640;BMP280;60912;48.968;10.124;2022-09-01T13:45:42;96905.31;;;24.26
71640;BMP280;60912;48.968;10.124;2022-09-01T13:48:08;96904.41;;;24.21
71640;BMP280;60912;48.968;10.124;2022-09-01T13:50:34;96904.19;;;24.01
71640;BMP280;60912;48.968;10.124;2022-09-01T13:53:00;96910.88;;;23.79
71640;BMP280;60912;48.968;10.124;2022-09-01T13:55:30;96909.81;;;23.14
71640;BMP280;60912;48.968;10.124;2022-09-01T13:57:57;96908.34;;;23.13
71640;BMP280;60912;48.968;10.124;2022-09-01T14:00:26;96906.78;;;23.23
71640;BMP280;60912;48.968;10.124;2022-09-01T14:02:55;96903.56;;;23.15
71640;BMP280;60912;48.968;10.124;2022-09-01T14:05:24;96896.09;;;23.49
71640;BMP280;60912;48.968;10.124;2022-09-01T14:07:50;96895.53;;;23.52
71640;BMP280;60912;48.968;10.124;2022-09-01T14:10:17;96898.03;;;23.60
71640;BMP280;60912;48.968;10.124;2022-09-01T14:12:43;96900.78;;;23.44
71640;BMP280;60912;48.968;10.124;2022-09-01T14:15:10;96893.09;;;23.74
71640;BMP280;60912;48.968;10.124;2022-09-01T14:17:37;96895.06;;;23.87
71640;BMP280;60912;48.968;10.124;2022-09-01T14:20:07;96890.72;;;23.84
71640;BMP280;60912;48.968;10.124;2022-09-01T14:22:34;96890.72;;;23.84
71640;BMP280;60912;48.968;10.124;2022-09-01T14:24:59;96900.13;;;23.59
71640;BMP280;60912;48.968;10.124;2022-09-01T14:27:25;96901.22;;;23.25
71640;BMP280;60912;48.968;10.124;2022-09-01T14:29:51;96893.94;;;23.34
71640;BMP280;60912;48.968;10.124;2022-09-01T14:32:19;96883.56;;;23.52
71640;BMP280;60912;48.968;10.124;2022-09-01T14:34:47;96875.03;;;23.50
71640;BMP280;60912;48.968;10.124;2022-09-01T14:37:12;96883.47;;;23.50
71640;BMP280;60912;48.968;10.124;2022-09-01T14:39:38;96880.88;;;23.40
71640;BMP280;60912;48.968;10.124;2022-09-01T14:42:04;96880.19;;;23.26
71640;BMP280;60912;48.968;10.124;2022-09-01T14:44:35;96875.13;;;23.23
71640;BMP280;60912;48.968;10.124;2022-09-01T14:47:02;96879.69;;;23.30
71640;BMP280;60912;48.968;10.124;2022-09-01T14:49:28;96876.13;;;23.43
71640;BMP280;60912;48.968;10.124;2022-09-01T14:51:57;96871.84;;;23.42
71640;BMP280;60912;48.968;10.124;2022-09-01T14:54:22;96874.31;;;23.49
71640;BMP280;60912;48.968;10.124;2022-09-01T14:56:48;96863.09;;;23.07
71640;BMP280;60912;48.968;10.124;2022-09-01T14:59:13;96864.94;;;23.16
71640;BMP280;60912;48.968;10.124;2022-09-01T15:01:39;96866.63;;;22.93